RYR86DZ EBCI-LFMU
Flight info
| Callsign | RYR86DZ |
|---|---|
| Flight time | N/A |
| Altitude | 19000 |
| Route | CIV Y50 REM B3 VATRI G40 TRO B373 MOU A27 MEN J27 AFRIC |
| Aircraft | B738/M-SDE2E3FGHIRWXY/LB1 |
Departure
| Time | N/A |
|---|---|
| Airport | Brussels South Charleroi Airport (EBCI) |
Arrival
| Time | 2026-04-24 19:18 |
|---|---|
| Airport | Béziers Vias airport (LFMU) |
| Time | Latitude | Longitude | Altitude | Speed | Heading |
|---|---|---|---|---|---|
| 2026-04-24 18:54 | 44.92486 | 3.16595 | 19107 ft | 407 kts | 182° |
| 2026-04-24 18:55 | 44.86874 | 3.16539 | 19119 ft | 408 kts | 182° |
| 2026-04-24 18:55 | 44.83998 | 3.16515 | 19116 ft | 408 kts | 182° |
| 2026-04-24 18:55 | 44.81156 | 3.16485 | 19116 ft | 408 kts | 182° |
| 2026-04-24 18:56 | 44.78317 | 3.16450 | 19128 ft | 408 kts | 182° |
| 2026-04-24 18:56 | 44.75463 | 3.16411 | 19123 ft | 408 kts | 182° |
| 2026-04-24 18:56 | 44.72629 | 3.16371 | 19128 ft | 408 kts | 182° |
| 2026-04-24 18:56 | 44.69786 | 3.16336 | 19129 ft | 408 kts | 182° |
| 2026-04-24 18:57 | 44.66957 | 3.16298 | 19128 ft | 407 kts | 182° |
| 2026-04-24 18:57 | 44.64153 | 3.16257 | 19128 ft | 407 kts | 182° |
| 2026-04-24 18:57 | 44.61294 | 3.16217 | 19125 ft | 403 kts | 182° |
| 2026-04-24 18:57 | 44.58538 | 3.16163 | 19109 ft | 386 kts | 182° |
| 2026-04-24 18:58 | 44.55923 | 3.16089 | 19109 ft | 369 kts | 182° |
| 2026-04-24 18:58 | 44.53410 | 3.16009 | 19108 ft | 353 kts | 183° |
| 2026-04-24 18:58 | 44.50996 | 3.15928 | 19115 ft | 339 kts | 183° |
| 2026-04-24 18:58 | 44.50939 | 3.15926 | 19115 ft | 338 kts | 183° |
| 2026-04-24 18:59 | 44.49063 | 3.15863 | 18980 ft | 333 kts | 183° |
| 2026-04-24 18:59 | 44.46796 | 3.15786 | 18791 ft | 327 kts | 183° |
| 2026-04-24 18:59 | 44.44526 | 3.15709 | 18487 ft | 326 kts | 183° |
| 2026-04-24 18:59 | 44.42270 | 3.15632 | 18190 ft | 324 kts | 183° |
| 2026-04-24 19:00 | 44.39997 | 3.15553 | 17948 ft | 334 kts | 183° |
| 2026-04-24 19:00 | 44.38383 | 3.15496 | 17792 ft | 349 kts | 183° |
| 2026-04-24 19:00 | 44.37277 | 3.15457 | 17641 ft | 355 kts | 182° |
| 2026-04-24 19:00 | 44.34795 | 3.15371 | 17259 ft | 356 kts | 182° |
| 2026-04-24 19:01 | 44.32324 | 3.15289 | 16850 ft | 353 kts | 182° |
| 2026-04-24 19:01 | 44.29878 | 3.15210 | 16458 ft | 350 kts | 182° |
| 2026-04-24 19:01 | 44.27445 | 3.15131 | 16066 ft | 348 kts | 182° |
| 2026-04-24 19:01 | 44.25028 | 3.15052 | 15675 ft | 346 kts | 182° |
| 2026-04-24 19:02 | 44.23441 | 3.15001 | 15418 ft | 345 kts | 182° |
| 2026-04-24 19:02 | 44.20241 | 3.14897 | 14897 ft | 342 kts | 182° |
| 2026-04-24 19:02 | 44.17857 | 3.14818 | 14513 ft | 341 kts | 182° |
| 2026-04-24 19:02 | 44.15485 | 3.14740 | 14115 ft | 341 kts | 182° |
| 2026-04-24 19:03 | 44.13116 | 3.14662 | 13688 ft | 340 kts | 182° |
| 2026-04-24 19:03 | 44.10784 | 3.14586 | 13286 ft | 338 kts | 182° |
| 2026-04-24 19:03 | 44.08435 | 3.14509 | 12876 ft | 336 kts | 182° |
| 2026-04-24 19:03 | 44.06113 | 3.14432 | 12489 ft | 334 kts | 182° |
| 2026-04-24 19:04 | 44.03802 | 3.14357 | 12103 ft | 332 kts | 182° |
| 2026-04-24 19:04 | 44.01501 | 3.14282 | 11721 ft | 330 kts | 182° |
| 2026-04-24 19:04 | 43.99241 | 3.14208 | 11355 ft | 328 kts | 182° |
| 2026-04-24 19:04 | 43.96963 | 3.14134 | 10970 ft | 326 kts | 182° |
| 2026-04-24 19:05 | 43.94697 | 3.14060 | 10632 ft | 323 kts | 182° |
| 2026-04-24 19:05 | 43.92477 | 3.13988 | 10499 ft | 314 kts | 182° |
| 2026-04-24 19:05 | 43.90349 | 3.13920 | 10350 ft | 306 kts | 182° |
| 2026-04-24 19:05 | 43.88253 | 3.13853 | 10214 ft | 297 kts | 182° |
| 2026-04-24 19:06 | 43.86208 | 3.13789 | 10006 ft | 292 kts | 182° |
| 2026-04-24 19:06 | 43.84172 | 3.13723 | 9691 ft | 291 kts | 182° |
| 2026-04-24 19:06 | 43.82145 | 3.13656 | 9401 ft | 289 kts | 182° |
| 2026-04-24 19:06 | 43.80139 | 3.13590 | 9097 ft | 287 kts | 182° |
| 2026-04-24 19:07 | 43.78156 | 3.13525 | 8808 ft | 285 kts | 181° |
| 2026-04-24 19:07 | 43.76177 | 3.13460 | 8522 ft | 283 kts | 181° |
| 2026-04-24 19:07 | 43.74863 | 3.13418 | 8333 ft | 282 kts | 181° |
| 2026-04-24 19:07 | 43.72269 | 3.13334 | 7955 ft | 281 kts | 181° |
| 2026-04-24 19:08 | 43.70312 | 3.13270 | 7667 ft | 280 kts | 181° |
| 2026-04-24 19:08 | 43.68360 | 3.13207 | 7377 ft | 279 kts | 181° |
| 2026-04-24 19:08 | 43.66428 | 3.13144 | 7088 ft | 278 kts | 181° |
| 2026-04-24 19:08 | 43.64514 | 3.13082 | 6802 ft | 277 kts | 181° |
| 2026-04-24 19:09 | 43.62568 | 3.13018 | 6515 ft | 276 kts | 181° |
| 2026-04-24 19:09 | 43.60644 | 3.12955 | 6211 ft | 275 kts | 181° |
| 2026-04-24 19:09 | 43.58732 | 3.12893 | 5927 ft | 274 kts | 181° |
| 2026-04-24 19:09 | 43.56831 | 3.12830 | 5645 ft | 272 kts | 181° |
| 2026-04-24 19:10 | 43.54949 | 3.12769 | 5352 ft | 270 kts | 181° |
| 2026-04-24 19:10 | 43.53059 | 3.12706 | 5090 ft | 268 kts | 181° |
| 2026-04-24 19:10 | 43.51227 | 3.12646 | 4958 ft | 261 kts | 180° |
| 2026-04-24 19:10 | 43.49473 | 3.12587 | 4909 ft | 247 kts | 180° |
| 2026-04-24 19:11 | 43.47801 | 3.12532 | 4816 ft | 232 kts | 180° |
| 2026-04-24 19:11 | 43.46249 | 3.12482 | 4844 ft | 211 kts | 180° |
| 2026-04-24 19:11 | 43.44829 | 3.12438 | 4728 ft | 197 kts | 180° |
| 2026-04-24 19:11 | 43.43507 | 3.12398 | 4619 ft | 183 kts | 180° |
| 2026-04-24 19:12 | 43.42270 | 3.12361 | 4373 ft | 177 kts | 180° |
| 2026-04-24 19:12 | 43.41041 | 3.12318 | 4113 ft | 174 kts | 181° |
| 2026-04-24 19:12 | 43.39872 | 3.12208 | 3908 ft | 168 kts | 182° |
| 2026-04-24 19:12 | 43.38715 | 3.12090 | 3747 ft | 165 kts | 182° |
| 2026-04-24 19:13 | 43.37948 | 3.12011 | 3613 ft | 161 kts | 182° |
| 2026-04-24 19:13 | 43.36494 | 3.11867 | 3396 ft | 158 kts | 182° |
| 2026-04-24 19:13 | 43.35388 | 3.11757 | 3240 ft | 160 kts | 182° |
| 2026-04-24 19:13 | 43.34285 | 3.11808 | 3076 ft | 157 kts | 157° |
| 2026-04-24 19:14 | 43.33620 | 3.12874 | 2900 ft | 151 kts | 101° |
| 2026-04-24 19:14 | 43.33561 | 3.14284 | 2763 ft | 150 kts | 95° |
| 2026-04-24 19:14 | 43.33472 | 3.15739 | 2594 ft | 151 kts | 95° |
| 2026-04-24 19:14 | 43.33385 | 3.17180 | 2444 ft | 151 kts | 95° |
| 2026-04-24 19:15 | 43.33303 | 3.18600 | 2256 ft | 152 kts | 95° |
| 2026-04-24 19:15 | 43.33223 | 3.20022 | 2079 ft | 153 kts | 96° |
| 2026-04-24 19:15 | 43.33156 | 3.21516 | 1811 ft | 159 kts | 95° |
| 2026-04-24 19:15 | 43.33061 | 3.23032 | 1592 ft | 158 kts | 97° |
| 2026-04-24 19:16 | 43.32820 | 3.25980 | 1149 ft | 155 kts | 97° |
| 2026-04-24 19:16 | 43.32749 | 3.27445 | 961 ft | 149 kts | 94° |
| 2026-04-24 19:16 | 43.32703 | 3.28808 | 837 ft | 138 kts | 95° |
| 2026-04-24 19:17 | 43.32624 | 3.30115 | 658 ft | 134 kts | 97° |
| 2026-04-24 19:17 | 43.32551 | 3.31376 | 474 ft | 133 kts | 94° |
| 2026-04-24 19:17 | 43.32491 | 3.32655 | 268 ft | 134 kts | 95° |
| 2026-04-24 19:17 | 43.32423 | 3.33917 | 124 ft | 131 kts | 95° |
| 2026-04-24 19:18 | 43.32349 | 3.35119 | 56 ft | 113 kts | 91° |
| 2026-04-24 19:18 | 43.32318 | 3.35862 | 53 ft | 40 kts | 94° |
| 2026-04-24 19:18 | 43.32298 | 3.36212 | 49 ft | 35 kts | 94° |
| 2026-04-24 19:18 | 43.32278 | 3.36511 | 50 ft | 29 kts | 94° |
| 2026-04-24 19:19 | 43.32279 | 3.36652 | 47 ft | 10 kts | 120° |
| 2026-04-24 19:19 | 43.32263 | 3.36668 | 50 ft | 5 kts | 142° |
| 2026-04-24 19:19 | 43.32245 | 3.36704 | 49 ft | 4 kts | 102° |
| 2026-04-24 19:19 | 43.32256 | 3.36712 | 51 ft | 2 kts | 342° |
| 2026-04-24 19:20 | 43.32267 | 3.36677 | 44 ft | 9 kts | 282° |
| 2026-04-24 19:20 | 43.32277 | 3.36544 | 50 ft | 17 kts | 275° |
| 2026-04-24 19:20 | 43.32287 | 3.36384 | 51 ft | 16 kts | 273° |
| 2026-04-24 19:20 | 43.32295 | 3.36228 | 50 ft | 17 kts | 275° |
| 2026-04-24 19:21 | 43.32307 | 3.36057 | 49 ft | 18 kts | 275° |
| 2026-04-24 19:21 | 43.32316 | 3.35886 | 53 ft | 18 kts | 274° |
| 2026-04-24 19:21 | 43.32324 | 3.35719 | 47 ft | 18 kts | 274° |
| 2026-04-24 19:21 | 43.32333 | 3.35540 | 53 ft | 19 kts | 274° |
| 2026-04-24 19:22 | 43.32339 | 3.35427 | 54 ft | 13 kts | 274° |
| 2026-04-24 19:22 | 43.32264 | 3.35332 | 58 ft | 13 kts | 187° |
| 2026-04-24 19:22 | 43.32183 | 3.35343 | 51 ft | 11 kts | 143° |
| 2026-04-24 19:22 | 43.32134 | 3.35400 | 57 ft | 0 kts | 137° |